Lamy, NM (87540)

12:42 PM MDT on July 23, 2017 (GMT -0600)
Spirit Wind Ranch (Lamy NM) | | Change Station
Active Advisory: Areal Flood Advisory Active Notice: Areal Flood Advisory

Elev 6518 ft 35.48 °N, 105.90 °W | Updated 10 seconds ago

Mostly Cloudy
Mostly Cloudy
81.1 °F
Feels Like 81 °F
N
0.0
Wind Variable Wind from WNW
Gusts 0.0 mph

Today
High -- | Low -- °F
--% Chance of Precip.
Yesterday
High -- | Low -- °F
Precip. -- in
Pressure 29.93 in
Visibility 10.0 miles
Clouds Mostly Cloudy 10000 ft
Heat Index 81 °F
Dew Point 55 °F
Humidity 40%
Rainfall 0.00 in
Snow Depth Not available.
6:05 AM 8:14 PM
New Moon, 0% visible
METAR KSAF 231753Z 00000KT 10SM BKN100 27/09 A3026 RMK AO2 LTG DSNT NE SLP135 T02720094 10283 20139 58003
Pressure 29.93 in
Visibility 10.0 miles
Clouds Mostly Cloudy 10000 ft
Heat Index 81 °F
Dew Point 55 °F
Humidity 40%
Rainfall 0.00 in
Snow Depth Not available.
6:05 AM 8:14 PM
New Moon, 0% visible
METAR KSAF 231753Z 00000KT 10SM BKN100 27/09 A3026 RMK AO2 LTG DSNT NE SLP135 T02720094 10283 20139 58003

Get Your Daily Forecast Email!

Thanks for signing up!

Be on the lookout for a verification email in your inbox.

You'll start receiving severe weather alerts in your inbox..

×

10-Day Weather Forecast

Almanac

Astronomy

Jul. 23, 2017 Rise Set
Actual Time
Civil Twilight
Nautical Twilight
Astronomical Twilight
Moon
Length of Visible Light
Length of Day
Tomorrow will be .
, % of the Moon is Illuminated

Today's Extremes

State Highs State Lows

Community

WunderPhotos

Category 6

Welcome to Category 6. This is the collective home for Weather Underground's featured writeups by Dr. Jeff Masters (right), Bob Henson (left), Chris Burt, and other regular contributors.

Nearby

Air Quality

  Air Quality AQ Index Pollutant
Not available.

Snow Depth

Station Depth Elevation

Earthquake Activity

City Distance Mag. Time & Date
Minimum magnitude displayed is 2.5.

Coastal Water Temperatures

Place Temperature

Stations

Nearby Weather Stations

Station Location Temp. Windchill Dew Point Humidity Wind Precip. Elev Updated Type
                   

Watches & Warnings

Areal Flood Advisory
Issued: 12:38 PM MDT Jul. 23, 2017 – National Weather Service

The National Weather Service in Albuquerque has issued a

* Arroyo and small stream flood advisory for...
northeastern Santa Fe County in north central New Mexico...

* until 230 PM MDT.

* At 1236 PM MDT, the public reported heavy rainfall along the west
slopes of the Sangre de Cristo Mountains from thunderstorms near
Chimayo south to Chupadero, Tesuque, and Santa Fe. This will cause
Arroyo and small stream flooding downstream of the higher terrain.

* Some locations that will experience flooding include...
eastern Santa Fe, Eldorado at Santa Fe, Chimayo, Cundiyo, Canada de
los Alamos, Glorieta, Rio Chiquito, Hyde Memorial State Park, Rio
En Medio in Santa Fe County and Chupadero.

Lat... Lon 3549 10572 3549 10592 3600 10593 3600 10572


Guyer